createdAt,value
2022-09-15T00:00:08.628Z,96175.00
2022-09-15T00:02:35.297Z,96166.66
2022-09-15T00:05:01.902Z,96178.66
2022-09-15T00:07:28.457Z,96163.66
2022-09-15T00:09:55.410Z,96156.69
2022-09-15T00:12:21.990Z,96155.00
2022-09-15T00:14:48.581Z,96143.41
2022-09-15T00:17:15.159Z,96153.41
2022-09-15T00:19:41.668Z,96157.78
2022-09-15T00:22:08.174Z,96161.78
2022-09-15T00:24:35.937Z,96162.09
2022-09-15T00:27:02.484Z,96160.94
2022-09-15T00:29:29.096Z,96159.28
2022-09-15T00:31:55.583Z,96158.94
2022-09-15T00:34:22.297Z,96169.22
2022-09-15T00:36:48.762Z,96164.28
2022-09-15T00:39:15.306Z,96161.44
2022-09-15T00:41:42.998Z,96158.41
2022-09-15T00:44:37.067Z,96168.41
2022-09-15T00:47:21.838Z,96156.59
2022-09-15T00:49:53.927Z,96159.56
2022-09-15T00:52:37.497Z,96155.56
2022-09-15T00:55:10.211Z,96157.38
2022-09-15T00:57:45.823Z,96161.06
2022-09-15T01:00:18.440Z,96154.56
2022-09-15T01:02:47.346Z,96144.22
2022-09-15T01:05:17.564Z,96147.69
2022-09-15T01:07:50.789Z,96148.19
2022-09-15T01:10:25.820Z,96146.03
2022-09-15T01:12:57.049Z,96149.34
2022-09-15T01:15:29.395Z,96145.41
2022-09-15T01:18:25.013Z,96141.69
2022-09-15T01:21:04.376Z,96142.25
2022-09-15T01:24:07.241Z,96145.72
2022-09-15T01:26:42.903Z,96134.47
2022-09-15T01:29:37.288Z,96126.41
2022-09-15T01:32:53.219Z,96138.56
2022-09-15T01:35:28.234Z,96126.97
2022-09-15T01:38:30.671Z,96125.66
2022-09-15T01:41:05.327Z,96119.03
2022-09-15T01:43:36.055Z,96119.72
2022-09-15T01:46:04.346Z,96118.22
2022-09-15T01:48:32.953Z,96116.41
2022-09-15T01:51:02.988Z,96116.06
2022-09-15T01:53:30.063Z,96122.06
2022-09-15T01:56:02.829Z,96117.56
2022-09-15T01:58:29.425Z,96124.19
2022-09-15T02:01:02.767Z,96121.34
2022-09-15T02:03:39.247Z,96113.06
2022-09-15T02:06:16.945Z,96116.03
2022-09-15T02:09:12.664Z,96111.69
2022-09-15T02:11:54.235Z,96113.00
2022-09-15T02:14:35.258Z,96122.81
2022-09-15T02:17:02.961Z,96122.47
2022-09-15T02:19:31.607Z,96121.66
2022-09-15T02:22:12.026Z,96117.34
2022-09-15T02:24:44.106Z,96113.00
2022-09-15T02:27:17.822Z,96112.19
2022-09-15T02:29:47.892Z,96120.81
2022-09-15T02:32:17.430Z,96113.53
2022-09-15T02:34:47.828Z,96119.00
2022-09-15T02:37:14.799Z,96115.69
2022-09-15T02:39:47.381Z,96115.34
2022-09-15T02:42:24.573Z,96113.34
2022-09-15T02:44:51.408Z,96111.50
2022-09-15T02:47:18.362Z,96112.81
2022-09-15T02:49:45.017Z,96113.16
2022-09-15T02:52:13.862Z,96114.97
2022-09-15T02:54:40.390Z,96112.31
2022-09-15T02:57:07.094Z,96104.28
2022-09-15T02:59:52.300Z,96107.63
2022-09-15T03:02:20.541Z,96096.38
2022-09-15T03:04:48.452Z,96107.63
2022-09-15T03:07:16.292Z,96103.13
2022-09-15T03:09:42.821Z,96102.91
2022-09-15T03:12:09.575Z,96099.53
2022-09-15T03:14:36.429Z,96098.19
2022-09-15T03:17:03.566Z,96096.53
2022-09-15T03:19:31.006Z,96096.06
2022-09-15T03:21:57.570Z,96095.75
2022-09-15T03:24:24.129Z,96095.94
2022-09-15T03:26:51.051Z,96097.59
2022-09-15T03:29:17.562Z,96102.16
2022-09-15T03:31:44.166Z,96096.34
2022-09-15T03:34:10.807Z,96107.81
2022-09-15T03:36:38.217Z,96095.69
2022-09-15T03:39:04.720Z,96105.34
2022-09-15T03:41:31.232Z,96100.88
2022-09-15T03:43:57.821Z,96104.84
2022-09-15T03:46:24.336Z,96106.53
2022-09-15T03:48:51.247Z,96099.03
2022-09-15T03:51:18.125Z,96112.03
2022-09-15T03:53:44.745Z,96103.38
2022-09-15T03:56:19.101Z,96114.38
2022-09-15T03:58:45.685Z,96113.44
2022-09-15T04:01:12.607Z,96101.44
2022-09-15T04:03:45.260Z,96102.56
2022-09-15T04:06:15.160Z,96103.94
2022-09-15T04:08:43.942Z,96104.47
2022-09-15T04:11:12.306Z,96096.28
2022-09-15T04:13:40.615Z,96100.13
2022-09-15T04:16:10.262Z,96093.81
2022-09-15T04:18:37.008Z,96094.59
2022-09-15T04:21:13.275Z,96095.16
2022-09-15T04:23:41.017Z,96097.00
2022-09-15T04:26:15.365Z,96093.56
2022-09-15T04:28:41.855Z,96100.16
2022-09-15T04:31:11.535Z,96089.19
2022-09-15T04:33:40.121Z,96087.53
2022-09-15T04:36:27.459Z,96097.19
2022-09-15T04:38:55.326Z,96091.63
2022-09-15T04:41:22.354Z,96090.44
2022-09-15T04:43:49.252Z,96092.44
2022-09-15T04:46:16.843Z,96097.66
2022-09-15T04:48:45.537Z,96082.56
2022-09-15T04:51:15.155Z,96078.19
2022-09-15T04:53:42.084Z,96089.91
2022-09-15T04:56:14.215Z,96087.69
2022-09-15T04:58:46.432Z,96086.41
2022-09-15T05:01:19.235Z,96081.91
2022-09-15T05:03:46.509Z,96086.41
2022-09-15T05:06:16.530Z,96088.72
2022-09-15T05:08:43.504Z,96088.13
2022-09-15T05:11:11.954Z,96085.06
2022-09-15T05:13:40.215Z,96092.28
2022-09-15T05:16:14.335Z,96091.31
2022-09-15T05:18:42.261Z,96094.66
2022-09-15T05:21:10.460Z,96090.97
2022-09-15T05:23:37.796Z,96095.66
2022-09-15T05:26:07.012Z,96090.53
2022-09-15T05:28:35.295Z,96096.75
2022-09-15T05:31:02.722Z,96093.34
2022-09-15T05:33:29.257Z,96093.19
2022-09-15T05:35:58.346Z,96096.50
2022-09-15T05:38:25.781Z,96102.38
2022-09-15T05:40:52.374Z,96100.81
2022-09-15T05:43:19.109Z,96108.03
2022-09-15T05:45:54.934Z,96110.84
2022-09-15T05:48:21.756Z,96112.66
2022-09-15T05:50:50.121Z,96113.31
2022-09-15T05:53:16.842Z,96115.19
2022-09-15T05:55:43.846Z,96113.22
2022-09-15T05:58:10.973Z,96111.75
2022-09-15T06:00:37.633Z,96114.19
2022-09-15T06:03:04.495Z,96121.09
2022-09-15T06:05:31.097Z,96119.38
2022-09-15T06:07:57.626Z,96124.72
2022-09-15T06:10:25.086Z,96123.63
2022-09-15T06:12:54.974Z,96123.56
2022-09-15T06:15:23.125Z,96132.88
2022-09-15T06:17:49.799Z,96130.50
2022-09-15T06:20:16.862Z,96137.97
2022-09-15T06:22:43.359Z,96142.41
2022-09-15T06:25:10.531Z,96143.63
2022-09-15T06:27:37.102Z,96147.00
2022-09-15T06:30:03.765Z,96160.66
2022-09-15T06:32:30.380Z,96156.63
2022-09-15T06:34:56.853Z,96151.66
2022-09-15T06:37:23.338Z,96153.34
2022-09-15T06:39:49.833Z,96150.63
2022-09-15T06:42:16.596Z,96155.25
2022-09-15T06:44:43.105Z,96157.03
2022-09-15T06:47:10.501Z,96156.50
2022-09-15T06:49:37.029Z,96167.34
2022-09-15T06:52:05.108Z,96163.69
2022-09-15T06:54:31.665Z,96164.72
2022-09-15T06:56:58.374Z,96158.72
2022-09-15T06:59:24.900Z,96160.41
2022-09-15T07:01:55.432Z,96158.03
2022-09-15T07:04:22.681Z,96164.31
2022-09-15T07:06:50.479Z,96155.94
2022-09-15T07:09:17.242Z,96151.09
2022-09-15T07:11:45.207Z,96153.50
2022-09-15T07:14:12.245Z,96155.78
2022-09-15T07:16:39.351Z,96157.34
2022-09-15T07:19:06.217Z,96150.44
2022-09-15T07:21:33.396Z,96151.25
2022-09-15T07:24:06.396Z,96152.22
2022-09-15T07:26:34.143Z,96159.94
2022-09-15T07:29:08.385Z,96160.75
2022-09-15T07:31:37.925Z,96160.16
2022-09-15T07:34:05.687Z,96167.56
2022-09-15T07:36:32.710Z,96169.75
2022-09-15T07:38:59.443Z,96172.91
2022-09-15T07:41:30.935Z,96170.22
2022-09-15T07:44:01.157Z,96176.03
2022-09-15T07:46:31.202Z,96175.66
2022-09-15T07:48:57.744Z,96168.56
2022-09-15T07:51:26.161Z,96172.78
2022-09-15T08:02:04.144Z,96166.91
2022-09-15T08:08:47.698Z,96177.00
2022-09-15T08:11:19.073Z,96176.41
2022-09-15T08:17:44.528Z,96176.19
2022-09-15T08:20:11.760Z,96175.28
2022-09-15T08:29:55.160Z,96181.44
2022-09-15T08:37:08.514Z,96181.44
2022-09-15T08:39:34.975Z,96199.94
2022-09-15T08:42:02.665Z,96188.56
2022-09-15T08:48:16.030Z,96198.94
2022-09-15T08:50:47.583Z,96197.75
2022-09-15T08:58:02.528Z,96193.63
2022-09-15T09:00:31.344Z,96195.72
2022-09-15T09:10:46.916Z,96188.25
2022-09-15T09:13:24.237Z,96184.09
2022-09-15T09:16:15.887Z,96181.72
2022-09-15T09:19:14.545Z,96178.50
2022-09-15T09:21:57.255Z,96176.09
2022-09-15T09:24:37.243Z,96172.31
2022-09-15T09:27:04.242Z,96167.03
2022-09-15T09:33:31.558Z,96159.31
2022-09-15T09:43:59.840Z,96148.84
2022-09-15T09:50:36.574Z,96141.34
2022-09-15T09:57:13.523Z,96133.53
2022-09-15T10:08:18.534Z,96120.66
2022-09-15T10:15:40.712Z,96111.63
2022-09-15T10:26:23.124Z,96098.25
2022-09-15T10:29:52.499Z,96097.09
2022-09-15T10:40:33.646Z,96068.91
2022-09-15T10:43:32.459Z,96063.63
2022-09-15T10:46:12.705Z,96055.69
2022-09-15T10:49:03.275Z,96053.13
2022-09-15T10:51:46.445Z,96053.91
2022-09-15T10:54:41.596Z,96053.78
2022-09-15T10:57:40.178Z,96044.75
2022-09-15T11:15:16.340Z,96047.88
2022-09-15T11:18:12.003Z,96044.22
2022-09-15T11:24:58.524Z,96034.59
2022-09-15T11:39:46.860Z,96011.94
2022-09-15T11:46:07.358Z,96031.25
2022-09-15T12:04:18.383Z,96046.13
2022-09-15T12:06:57.091Z,96047.19
2022-09-15T12:09:23.857Z,96054.25
2022-09-15T12:11:57.174Z,96054.81
2022-09-15T12:14:37.263Z,96061.13
2022-09-15T12:17:09.806Z,96060.75
2022-09-15T12:20:01.962Z,96066.69
2022-09-15T12:22:43.588Z,96068.78
2022-09-15T12:32:48.536Z,96057.59
2022-09-15T12:35:17.805Z,96057.16
2022-09-15T12:37:58.854Z,96066.69
2022-09-15T12:40:25.598Z,96067.41
2022-09-15T12:42:52.529Z,96065.91
2022-09-15T12:45:29.348Z,96076.22
2022-09-15T12:48:07.024Z,96094.50
2022-09-15T12:50:39.699Z,96104.63
2022-09-15T12:53:22.157Z,96121.81
2022-09-15T12:55:58.524Z,96122.84
2022-09-15T12:58:48.072Z,96127.91
2022-09-15T13:01:23.657Z,96124.69
2022-09-15T13:03:50.209Z,96134.44
2022-09-15T13:06:19.263Z,96142.38
2022-09-15T13:08:50.156Z,96145.44
2022-09-15T13:11:25.810Z,96138.38
2022-09-15T13:14:04.065Z,96128.97
2022-09-15T13:16:59.585Z,96125.88
2022-09-15T13:19:41.541Z,96117.16
2022-09-15T13:22:10.968Z,96123.16
2022-09-15T13:24:59.188Z,96110.00
2022-09-15T13:27:48.251Z,96106.31
2022-09-15T13:30:14.731Z,96112.34
2022-09-15T13:33:07.811Z,96107.03
2022-09-15T13:36:06.855Z,96113.56
2022-09-15T13:38:55.640Z,96115.69
2022-09-15T13:41:51.921Z,96104.84
2022-09-15T13:44:21.505Z,96101.91
2022-09-15T13:47:17.147Z,96094.94
2022-09-15T13:50:12.016Z,96090.44
2022-09-15T13:53:03.085Z,96082.00
2022-09-15T13:55:36.755Z,96097.97
2022-09-15T14:00:53.860Z,96106.94
2022-09-15T14:03:45.949Z,96113.88
2022-09-15T14:06:19.649Z,96122.59
2022-09-15T14:08:52.137Z,96109.16
2022-09-15T14:11:26.084Z,96100.22
2022-09-15T14:13:55.127Z,96104.00
2022-09-15T14:16:29.200Z,96098.88
2022-09-15T14:18:58.436Z,96108.09
2022-09-15T14:21:27.404Z,96108.78
2022-09-15T14:23:55.993Z,96115.34
2022-09-15T14:26:25.449Z,96107.03
2022-09-15T14:29:04.024Z,96107.91
2022-09-15T14:31:41.045Z,96104.25
2022-09-15T14:34:16.398Z,96102.75
2022-09-15T14:36:43.109Z,96097.16
2022-09-15T14:39:12.305Z,96111.78
2022-09-15T14:41:40.109Z,96094.38
2022-09-15T14:47:25.372Z,96095.75
2022-09-15T14:50:15.562Z,96096.63
2022-09-15T14:53:10.227Z,96086.50
2022-09-15T14:56:08.280Z,96088.53
2022-09-15T14:58:52.724Z,96093.59
2022-09-15T15:01:30.388Z,96077.44
2022-09-15T15:04:20.031Z,96098.03
2022-09-15T15:06:59.342Z,96106.28
2022-09-15T15:09:34.874Z,96110.69
2022-09-15T15:12:07.215Z,96096.94
2022-09-15T15:14:35.696Z,96118.22
2022-09-15T15:17:08.337Z,96095.00
2022-09-15T15:19:41.169Z,96099.56
2022-09-15T15:22:07.754Z,96086.59
2022-09-15T15:24:34.291Z,96088.34
2022-09-15T15:27:39.718Z,96088.72
2022-09-15T15:30:26.702Z,96084.31
2022-09-15T15:32:54.051Z,96080.44
2022-09-15T15:35:21.214Z,96082.53
2022-09-15T15:37:48.057Z,96101.28
2022-09-15T15:40:18.609Z,96180.72
2022-09-15T15:43:17.419Z,96166.09
2022-09-15T15:45:58.217Z,96151.97
2022-09-15T15:48:33.932Z,96161.75
2022-09-15T15:51:04.654Z,96152.22
2022-09-15T15:53:31.520Z,96155.09
2022-09-15T15:55:59.558Z,96158.00
2022-09-15T15:58:26.253Z,96159.88
2022-09-15T16:00:56.367Z,96159.59
2022-09-15T16:03:24.068Z,96160.28
2022-09-15T16:05:53.342Z,96165.09
2022-09-15T16:08:29.817Z,96174.56
2022-09-15T16:10:57.423Z,96171.03
2022-09-15T16:13:25.179Z,96177.50
2022-09-15T16:16:00.179Z,96181.28
2022-09-15T16:18:28.213Z,96192.25
2022-09-15T16:20:54.749Z,96193.06
2022-09-15T16:23:22.831Z,96194.38
2022-09-15T16:25:52.517Z,96181.91
2022-09-15T16:28:19.511Z,96201.72
2022-09-15T16:30:46.749Z,96191.28
2022-09-15T16:33:18.365Z,96198.25
2022-09-15T16:35:54.989Z,96213.88
2022-09-15T16:38:25.414Z,96220.84
2022-09-15T16:40:52.122Z,96228.38
2022-09-15T16:43:23.442Z,96224.91
2022-09-15T16:45:51.462Z,96226.22
2022-09-15T16:48:18.693Z,96223.03
2022-09-15T16:51:01.207Z,96229.16
2022-09-15T16:53:33.292Z,96237.47
2022-09-15T16:55:59.790Z,96238.09
2022-09-15T16:58:26.471Z,96231.75
2022-09-15T17:00:53.627Z,96238.09
2022-09-15T17:03:23.790Z,96239.41
2022-09-15T17:05:55.612Z,96244.03
2022-09-15T17:08:27.132Z,96246.00
2022-09-15T17:11:04.934Z,96247.31
2022-09-15T17:13:33.768Z,96258.78
2022-09-15T17:16:01.556Z,96261.75
2022-09-15T17:18:30.295Z,96270.06
2022-09-15T17:20:57.609Z,96277.88
2022-09-15T17:23:28.087Z,96285.19
2022-09-15T17:25:59.741Z,96280.53
2022-09-15T17:28:29.263Z,96287.34
2022-09-15T17:31:04.970Z,96289.53
2022-09-15T17:33:33.548Z,96291.03
2022-09-15T17:36:00.475Z,96291.69
2022-09-15T17:38:29.910Z,96292.03
2022-09-15T17:40:56.725Z,96296.38
2022-09-15T17:43:26.535Z,96286.25
2022-09-15T17:45:53.940Z,96293.91
2022-09-15T17:48:23.464Z,96302.19
2022-09-15T17:50:50.488Z,96301.53
2022-09-15T17:53:28.402Z,96299.69
2022-09-15T17:55:55.602Z,96309.69
2022-09-15T17:58:23.149Z,96312.31
2022-09-15T18:00:50.382Z,96317.78
2022-09-15T18:03:27.830Z,96329.72
2022-09-15T18:05:59.468Z,96334.97
2022-09-15T18:08:27.639Z,96340.25
2022-09-15T18:10:54.688Z,96350.34
2022-09-15T18:13:23.734Z,96347.47
2022-09-15T18:15:50.537Z,96355.91
2022-09-15T18:18:22.884Z,96358.84
2022-09-15T18:20:51.176Z,96368.47
2022-09-15T18:23:20.260Z,96373.41
2022-09-15T18:25:48.042Z,96382.34
2022-09-15T18:28:15.482Z,96383.44
2022-09-15T18:30:44.262Z,96378.59
2022-09-15T18:33:21.108Z,96381.53
2022-09-15T18:35:49.710Z,96390.09
2022-09-15T18:38:16.931Z,96393.75
2022-09-15T18:40:55.234Z,96393.91
2022-09-15T18:43:25.179Z,96404.03
2022-09-15T18:45:53.233Z,96403.75
2022-09-15T18:48:19.857Z,96403.31
2022-09-15T18:50:46.478Z,96416.25
2022-09-15T18:53:13.168Z,96416.19
2022-09-15T18:55:42.502Z,96430.88
2022-09-15T18:58:09.775Z,96425.94
2022-09-15T19:00:36.653Z,96435.19
2022-09-15T19:03:06.217Z,96432.84
2022-09-15T19:05:33.261Z,96443.75
2022-09-15T19:08:00.406Z,96455.25
2022-09-15T19:10:27.205Z,96455.25
2022-09-15T19:12:54.452Z,96459.72
2022-09-15T19:15:23.734Z,96446.06
2022-09-15T19:17:50.482Z,96454.53
2022-09-15T19:20:17.296Z,96454.28
2022-09-15T19:22:43.776Z,96454.03
2022-09-15T19:25:11.394Z,96465.91
2022-09-15T19:27:39.097Z,96467.31
2022-09-15T19:30:07.340Z,96470.56
2022-09-15T19:32:34.053Z,96472.94
2022-09-15T19:35:00.584Z,96476.72
2022-09-15T19:37:27.890Z,96482.69
2022-09-15T19:39:54.863Z,96479.19
2022-09-15T19:42:21.783Z,96489.78
2022-09-15T19:44:49.422Z,96486.16
2022-09-15T19:47:16.279Z,96483.06
2022-09-15T19:49:42.913Z,96485.59
2022-09-15T19:52:09.561Z,96499.81
2022-09-15T19:54:36.330Z,96506.13
2022-09-15T19:57:03.075Z,96504.06
2022-09-15T19:59:31.515Z,96513.09
2022-09-15T20:02:00.240Z,96512.16
2022-09-15T20:04:27.749Z,96513.81
2022-09-15T20:06:54.520Z,96514.94
2022-09-15T20:09:21.041Z,96528.56
2022-09-15T20:11:47.610Z,96516.59
2022-09-15T20:14:14.956Z,96528.31
2022-09-15T20:16:41.791Z,96537.22
2022-09-15T20:19:09.147Z,96547.56
2022-09-15T20:21:52.767Z,96531.09
2022-09-15T20:24:20.597Z,96539.63
2022-09-15T20:26:47.703Z,96533.59
2022-09-15T20:29:14.489Z,96533.34
2022-09-15T20:31:41.155Z,96541.13
2022-09-15T20:34:07.800Z,96545.47
2022-09-15T20:36:36.762Z,96544.59
2022-09-15T20:39:05.592Z,96545.16
2022-09-15T20:41:32.305Z,96551.03
2022-09-15T20:44:00.195Z,96542.38
2022-09-15T20:46:29.316Z,96541.56
2022-09-15T20:48:55.850Z,96546.00
2022-09-15T20:51:24.461Z,96534.44
2022-09-15T20:53:53.880Z,96540.44
2022-09-15T20:56:24.864Z,96536.94
2022-09-15T20:58:52.961Z,96530.41
2022-09-15T21:01:25.059Z,96541.66
2022-09-15T21:03:52.061Z,96548.09
2022-09-15T21:06:24.165Z,96553.25
2022-09-15T21:08:50.687Z,96557.56
2022-09-15T21:11:19.380Z,96549.06
2022-09-15T21:13:47.159Z,96549.91
2022-09-15T21:16:16.098Z,96546.72
2022-09-15T21:18:43.661Z,96550.34
2022-09-15T21:21:13.142Z,96552.28
2022-09-15T21:23:42.720Z,96554.91
2022-09-15T21:26:12.680Z,96564.53
2022-09-15T21:28:39.258Z,96565.09
2022-09-15T21:31:09.447Z,96559.94
2022-09-15T21:33:36.950Z,96571.25
2022-09-15T21:36:22.124Z,96563.00
2022-09-15T21:38:51.044Z,96558.69
2022-09-15T21:41:20.815Z,96559.13
2022-09-15T21:43:48.443Z,96563.13
2022-09-15T21:46:18.226Z,96583.19
2022-09-15T21:48:47.322Z,96580.69
2022-09-15T21:51:15.895Z,96587.94
2022-09-15T21:53:43.460Z,96591.84
2022-09-15T21:56:11.492Z,96591.69
2022-09-15T21:58:42.944Z,96592.94
2022-09-15T22:01:19.216Z,96588.59
2022-09-15T22:04:07.229Z,96596.94
2022-09-15T22:06:40.496Z,96595.69
2022-09-15T22:09:14.450Z,96590.13
2022-09-15T22:11:41.289Z,96590.84
2022-09-15T22:14:08.749Z,96590.41
2022-09-15T22:16:37.001Z,96590.28
2022-09-15T22:19:05.413Z,96587.78
2022-09-15T22:21:32.610Z,96586.53
2022-09-15T22:23:59.613Z,96582.34
2022-09-15T22:26:28.862Z,96592.69
2022-09-15T22:28:56.015Z,96590.47
2022-09-15T22:31:24.505Z,96589.47
2022-09-15T22:33:51.922Z,96591.81
2022-09-15T22:36:21.523Z,96596.16
2022-09-15T22:38:49.848Z,96591.97
2022-09-15T22:41:18.955Z,96590.00
2022-09-15T22:43:47.975Z,96578.19
2022-09-15T22:46:16.104Z,96584.28
2022-09-15T22:48:43.714Z,96579.72
2022-09-15T22:51:11.057Z,96581.50
2022-09-15T22:53:37.670Z,96575.53
2022-09-15T22:56:06.762Z,96573.56
2022-09-15T22:58:34.609Z,96577.06
2022-09-15T23:01:06.587Z,96566.34
2022-09-15T23:03:33.601Z,96562.97
2022-09-15T23:06:00.889Z,96562.84
2022-09-15T23:08:28.143Z,96558.97
2022-09-15T23:11:01.977Z,96550.63
2022-09-15T23:13:28.467Z,96555.72
2022-09-15T23:15:55.286Z,96553.81
2022-09-15T23:18:21.792Z,96548.63
2022-09-15T23:20:48.301Z,96553.47
2022-09-15T23:23:14.775Z,96551.84
2022-09-15T23:25:41.326Z,96552.66
2022-09-15T23:28:07.805Z,96543.03
2022-09-15T23:30:34.542Z,96541.78
2022-09-15T23:33:01.069Z,96540.25
2022-09-15T23:35:27.715Z,96533.84
2022-09-15T23:37:54.251Z,96532.63
2022-09-15T23:40:20.966Z,96525.09
2022-09-15T23:42:47.533Z,96523.56
2022-09-15T23:45:14.229Z,96531.75
2022-09-15T23:47:40.819Z,96530.50
2022-09-15T23:50:07.647Z,96526.91
2022-09-15T23:52:34.151Z,96525.63
2022-09-15T23:55:00.667Z,96534.41
2022-09-15T23:57:28.314Z,96528.28
2022-09-15T23:59:55.877Z,96521.91
